Time;durP1;ratioP1;P1;durP2;ratioP2;P2;SDS_P1;SDS_P2;PMS_P1;PMS_P2;Temp;Humidity;BMP_temperature;BMP_pressure;BME280_temperature;BME280_humidity;BME280_pressure;Samples;Min_cycle;Max_cycle;Signal;HPM_P1;HPM_P2
2020/12/12 00:01:50;;;;;;;47.22;20.80;;;;;;;6.64;100.00;98381.97;4969854;28;20105;-62
2020/12/12 00:04:19;;;;;;;52.03;22.27;;;;;;;6.59;100.00;98373.78;4966747;28;20047;-63
2020/12/12 00:06:46;;;;;;;43.72;19.10;;;;;;;6.55;100.00;98383.97;4966268;28;20051;-63
2020/12/12 00:09:15;;;;;;;47.13;21.23;;;;;;;6.51;100.00;98388.03;4968426;28;20078;-69
2020/12/12 00:11:42;;;;;;;47.88;19.63;;;;;;;6.44;100.00;98380.03;4969020;28;20077;-62
2020/12/12 00:14:09;;;;;;;48.45;19.85;;;;;;;6.43;100.00;98388.19;4967896;28;20055;-62
2020/12/12 00:16:38;;;;;;;48.95;19.50;;;;;;;6.55;100.00;98379.47;4967156;28;20046;-62
2020/12/12 00:19:05;;;;;;;46.67;20.33;;;;;;;6.60;100.00;98381.53;4967579;28;20055;-62
2020/12/12 00:21:33;;;;;;;50.80;19.08;;;;;;;6.41;100.00;98387.53;4968702;28;20043;-63
2020/12/12 00:24:00;;;;;;;43.63;20.15;;;;;;;6.34;100.00;98382.22;4965622;28;20070;-62
2020/12/12 00:26:27;;;;;;;43.53;19.45;;;;;;;6.31;100.00;98390.56;4968808;28;20055;-63
2020/12/12 00:28:55;;;;;;;50.00;20.35;;;;;;;6.34;100.00;98392.81;4970459;28;20042;-62
2020/12/12 00:31:21;;;;;;;36.95;18.58;;;;;;;6.25;100.00;98393.97;4965599;28;20354;-63
2020/12/12 00:33:49;;;;;;;36.65;15.90;;;;;;;6.30;100.00;98392.38;4968359;28;20043;-62
2020/12/12 00:36:16;;;;;;;49.33;19.77;;;;;;;6.37;100.00;98400.38;4967241;28;20054;-63
2020/12/12 00:38:44;;;;;;;37.25;15.40;;;;;;;6.46;100.00;98396.53;4968131;28;20058;-62
2020/12/12 00:41:11;;;;;;;37.88;15.60;;;;;;;6.53;100.00;98401.88;4969457;28;20098;-63
2020/12/12 00:43:38;;;;;;;44.00;16.38;;;;;;;6.69;100.00;98398.09;4967690;28;20058;-62
2020/12/12 00:46:05;;;;;;;45.80;16.83;;;;;;;6.70;100.00;98403.19;4965210;28;20046;-62
2020/12/12 00:48:32;;;;;;;35.25;15.52;;;;;;;6.81;100.00;98404.47;4968505;28;20050;-63
2020/12/12 00:50:59;;;;;;;42.85;15.63;;;;;;;6.83;100.00;98406.94;4968291;28;20129;-63
2020/12/12 00:53:26;;;;;;;36.17;15.93;;;;;;;6.83;100.00;98406.94;4966615;28;20055;-63
2020/12/12 00:55:55;;;;;;;41.20;16.23;;;;;;;6.87;100.00;98411.63;4966403;28;20458;-63
2020/12/12 00:58:22;;;;;;;33.55;16.40;;;;;;;6.95;100.00;98413.31;4967847;28;20053;-62
2020/12/12 01:00:49;;;;;;;35.67;15.82;;;;;;;6.92;100.00;98412.88;4970290;28;20043;-63
2020/12/12 01:03:16;;;;;;;40.90;15.07;;;;;;;6.96;100.00;98412.31;4969747;28;20074;-63
2020/12/12 01:05:43;;;;;;;41.47;14.55;;;;;;;6.94;100.00;98416.16;4965052;28;20078;-63
2020/12/12 01:08:11;;;;;;;35.60;14.68;;;;;;;6.86;100.00;98406.53;4965853;28;20360;-63
2020/12/12 01:10:40;;;;;;;37.20;14.57;;;;;;;6.95;100.00;98412.50;4967280;28;20050;-63
2020/12/12 01:13:08;;;;;;;37.13;16.65;;;;;;;6.98;100.00;98412.09;4969046;28;20142;-63
2020/12/12 01:15:35;;;;;;;35.20;13.57;;;;;;;6.93;100.00;98417.16;4965710;28;20366;-63
2020/12/12 01:18:02;;;;;;;36.95;14.30;;;;;;;6.98;100.00;98417.41;4968651;28;20042;-63
2020/12/12 01:20:30;;;;;;;48.95;15.07;;;;;;;6.87;100.00;98421.44;4968002;28;20337;-63
2020/12/12 01:22:57;;;;;;;40.63;16.15;;;;;;;6.98;100.00;98409.44;4969587;28;20347;-63
2020/12/12 01:25:24;;;;;;;34.35;14.73;;;;;;;6.96;100.00;98427.38;4964154;28;20055;-62
2020/12/12 01:27:54;;;;;;;32.40;12.63;;;;;;;6.93;100.00;98428.59;4966098;28;20150;-62
2020/12/12 01:30:22;;;;;;;38.38;15.23;;;;;;;7.04;100.00;98427.22;4968716;28;20042;-62
2020/12/12 01:32:49;;;;;;;42.38;13.82;;;;;;;7.01;100.00;98424.97;4965382;28;20054;-62
2020/12/12 01:35:16;;;;;;;36.00;14.48;;;;;;;7.00;100.00;98431.28;4966023;28;20137;-63
2020/12/12 01:37:43;;;;;;;29.45;12.63;;;;;;;6.95;100.00;98431.06;4964690;28;20057;-62
2020/12/12 01:40:11;;;;;;;34.17;13.02;;;;;;;6.98;100.00;98428.03;4966971;28;20146;-62
2020/12/12 01:42:37;;;;;;;30.48;12.35;;;;;;;7.00;100.00;98433.94;4968869;28;20046;-62
2020/12/12 01:45:05;;;;;;;33.40;13.02;;;;;;;7.01;100.00;98435.59;4970744;28;20069;-63
2020/12/12 01:47:36;;;;;;;26.95;12.85;;;;;;;7.15;100.00;98442.56;4961039;28;20058;-62
2020/12/12 01:50:04;;;;;;;28.58;11.50;;;;;;;7.11;100.00;98443.97;4968132;28;20054;-63
2020/12/12 01:52:32;;;;;;;27.42;13.02;;;;;;;7.11;100.00;98443.97;4965741;28;20047;-63
2020/12/12 01:55:02;;;;;;;36.38;15.63;;;;;;;7.11;100.00;98446.63;4964384;28;20381;-62
2020/12/12 01:57:29;;;;;;;37.20;13.63;;;;;;;7.10;100.00;98450.31;4967985;28;20050;-62
2020/12/12 01:59:57;;;;;;;33.78;13.10;;;;;;;6.97;100.00;98450.25;4967958;28;20728;-62
2020/12/12 02:02:23;;;;;;;35.85;14.15;;;;;;;6.99;100.00;98454.34;4969528;28;20062;-63
2020/12/12 02:04:53;;;;;;;36.75;13.02;;;;;;;7.00;100.00;98463.97;4966692;28;20051;-62
2020/12/12 02:07:21;;;;;;;33.08;13.23;;;;;;;7.06;100.00;98471.13;4964307;28;20046;-62
2020/12/12 02:09:49;;;;;;;29.50;13.30;;;;;;;7.01;100.00;98462.13;4967872;28;20043;-62
2020/12/12 02:12:17;;;;;;;30.00;14.48;;;;;;;6.95;100.00;98469.03;4968264;28;20051;-63
2020/12/12 02:14:44;;;;;;;30.98;14.77;;;;;;;6.88;100.00;98476.16;4966031;28;20082;-61
2020/12/12 02:17:11;;;;;;;35.50;13.93;;;;;;;6.93;100.00;98470.25;4965690;28;20054;-62
2020/12/12 02:19:38;;;;;;;39.47;13.93;;;;;;;6.94;100.00;98477.19;4971867;28;20054;-62
2020/12/12 02:22:07;;;;;;;31.23;12.80;;;;;;;6.91;100.00;98478.41;4968630;28;20469;-62
2020/12/12 02:24:34;;;;;;;40.20;15.52;;;;;;;6.95;100.00;98474.34;4969743;28;20051;-62
2020/12/12 02:27:04;;;;;;;27.45;13.38;;;;;;;7.00;100.00;98476.41;4971177;28;20042;-62
2020/12/12 02:29:41;;;;;;;34.75;13.52;;;;;;;6.88;100.00;98484.09;4971054;28;20043;-62
2020/12/12 02:32:08;;;;;;;33.20;14.30;;;;;;;6.85;100.00;98484.50;4972038;28;20073;-62
2020/12/12 02:34:35;;;;;;;36.58;13.50;;;;;;;6.95;100.00;98486.81;4968579;28;20047;-62
2020/12/12 02:37:02;;;;;;;39.75;14.00;;;;;;;6.97;100.00;98477.59;4965832;28;20050;-62
2020/12/12 02:39:30;;;;;;;34.67;16.20;;;;;;;6.89;100.00;98491.06;4970466;28;20058;-63
2020/12/12 02:41:58;;;;;;;37.38;14.18;;;;;;;6.88;100.00;98492.88;4973064;28;20054;-62
2020/12/12 02:44:25;;;;;;;48.55;17.00;;;;;;;6.88;100.00;98494.72;4967451;28;20059;-62
2020/12/12 02:46:52;;;;;;;36.75;16.00;;;;;;;6.83;100.00;98497.13;4966402;28;20058;-62
2020/12/12 02:49:19;;;;;;;42.17;15.60;;;;;;;6.92;100.00;98503.09;4971139;28;20043;-62
2020/12/12 02:51:46;;;;;;;34.65;15.50;;;;;;;6.93;100.00;98507.38;4971339;28;20046;-63
2020/12/12 02:54:13;;;;;;;32.30;14.93;;;;;;;6.97;100.00;98506.78;4968968;28;20062;-62
2020/12/12 02:56:41;;;;;;;37.90;14.20;;;;;;;6.93;100.00;98512.69;4969183;28;20081;-63
2020/12/12 02:59:09;;;;;;;41.88;15.00;;;;;;;6.92;100.00;98508.41;4971964;28;20091;-62
2020/12/12 03:01:39;;;;;;;34.92;14.45;;;;;;;7.02;100.00;98520.31;4970134;28;20050;-62
2020/12/12 03:04:06;;;;;;;30.73;12.95;;;;;;;6.91;100.00;98526.16;4967801;28;20485;-62
2020/12/12 03:06:33;;;;;;;33.63;14.50;;;;;;;6.89;100.00;98521.06;4970284;28;20046;-63
2020/12/12 03:09:02;;;;;;;31.45;14.32;;;;;;;6.96;100.00;98520.25;4966099;28;20075;-61
2020/12/12 03:11:29;;;;;;;39.83;15.75;;;;;;;6.86;100.00;98521.44;4966520;28;20058;-63
2020/12/12 03:13:57;;;;;;;39.60;15.20;;;;;;;6.95;100.00;98524.75;4969894;28;20396;-62
2020/12/12 03:16:27;;;;;;;35.05;14.02;;;;;;;6.93;100.00;98533.94;4968115;28;20050;-62
2020/12/12 03:18:54;;;;;;;47.00;14.60;;;;;;;6.91;100.00;98526.16;4967078;28;20042;-62
2020/12/12 03:21:21;;;;;;;41.70;13.43;;;;;;;7.00;100.00;98535.63;4971237;28;20042;-62
2020/12/12 03:23:48;;;;;;;31.48;11.60;;;;;;;7.04;100.00;98530.72;4967413;28;20496;-63
2020/12/12 03:26:15;;;;;;;37.20;14.75;;;;;;;7.12;100.00;98527.91;4969154;28;20055;-63
2020/12/12 03:28:42;;;;;;;37.17;13.65;;;;;;;7.06;100.00;98528.72;4967687;28;20081;-62
2020/12/12 03:31:09;;;;;;;30.90;11.63;;;;;;;7.08;100.00;98531.97;4970674;28;20109;-62
2020/12/12 03:33:36;;;;;;;32.70;12.73;;;;;;;7.10;100.00;98540.53;4966400;28;20058;-61
2020/12/12 03:36:04;;;;;;;31.08;12.20;;;;;;;7.15;100.00;98538.13;4970755;28;20081;-62
2020/12/12 03:38:30;;;;;;;36.53;13.43;;;;;;;7.12;100.00;98535.88;4965527;28;20054;-63
2020/12/12 03:40:57;;;;;;;42.08;12.80;;;;;;;7.20;100.00;98542.84;4970118;28;20045;-62
2020/12/12 03:43:25;;;;;;;38.08;13.05;;;;;;;7.12;100.00;98543.84;4968619;28;20069;-61
2020/12/12 03:45:54;;;;;;;44.88;14.25;;;;;;;7.06;100.00;98545.44;4968526;28;20043;-62
2020/12/12 03:48:22;;;;;;;44.15;15.63;;;;;;;7.03;100.00;98555.63;4968090;28;20049;-62
2020/12/12 03:50:49;;;;;;;47.35;14.82;;;;;;;7.03;100.00;98553.78;4970024;28;20047;-63
2020/12/12 03:53:16;;;;;;;40.25;14.00;;;;;;;7.08;100.00;98555.84;4968000;28;20043;-61
2020/12/12 03:55:43;;;;;;;37.30;14.43;;;;;;;7.13;100.00;98553.44;4969543;28;20088;-62
2020/12/12 03:58:10;;;;;;;43.17;15.77;;;;;;;7.16;100.00;98555.69;4967493;28;20067;-63
2020/12/12 04:00:38;;;;;;;41.30;15.27;;;;;;;7.14;100.00;98551.59;4970669;28;20054;-61
2020/12/12 04:03:05;;;;;;;36.80;14.27;;;;;;;7.12;100.00;98562.41;4970432;28;20343;-62
2020/12/12 04:05:33;;;;;;;32.38;15.20;;;;;;;7.10;100.00;98567.09;4968429;28;20371;-62
2020/12/12 04:08:00;;;;;;;41.92;14.50;;;;;;;7.03;100.00;98566.22;4964655;28;20039;-62
2020/12/12 04:10:27;;;;;;;42.33;15.10;;;;;;;7.20;100.00;98566.72;4968558;28;20083;-62
2020/12/12 04:12:54;;;;;;;38.58;15.25;;;;;;;7.14;100.00;98568.34;4970229;28;20051;-63
2020/12/12 04:15:20;;;;;;;39.15;14.90;;;;;;;7.10;100.00;98583.00;4969719;28;20403;-62
2020/12/12 04:17:47;;;;;;;36.65;16.20;;;;;;;7.10;100.00;98583.00;4965160;28;20063;-62
2020/12/12 04:20:14;;;;;;;40.72;18.02;;;;;;;7.09;100.00;98584.03;4969709;28;20045;-62
2020/12/12 04:22:42;;;;;;;42.05;18.88;;;;;;;6.99;100.00;98580.91;4968673;28;20566;-62
2020/12/12 04:25:12;;;;;;;48.58;16.55;;;;;;;7.03;100.00;98587.47;4967035;28;20058;-62
2020/12/12 04:27:39;;;;;;;42.08;16.42;;;;;;;6.93;100.00;98587.00;4965809;28;20379;-63
2020/12/12 04:30:06;;;;;;;47.42;16.23;;;;;;;6.88;100.00;98591.03;4970338;28;20038;-62
2020/12/12 04:32:33;;;;;;;51.92;18.77;;;;;;;6.82;100.00;98602.44;4969227;28;20074;-62
2020/12/12 04:35:01;;;;;;;48.13;18.88;;;;;;;6.89;100.00;98590.03;4968425;28;20463;-63
2020/12/12 04:37:28;;;;;;;53.42;18.48;;;;;;;6.84;100.00;98587.13;4967543;28;20042;-61
2020/12/12 04:39:55;;;;;;;45.25;16.63;;;;;;;6.98;100.00;98597.84;4968957;28;20049;-62
2020/12/12 04:42:26;;;;;;;38.08;17.25;;;;;;;6.88;100.00;98606.97;4969831;28;20045;-62
2020/12/12 04:44:52;;;;;;;55.17;19.92;;;;;;;6.73;100.00;98603.56;4969187;28;20046;-62
2020/12/12 04:47:19;;;;;;;50.40;21.13;;;;;;;6.78;100.00;98608.34;4964596;28;20039;-61
2020/12/12 04:49:46;;;;;;;49.53;17.50;;;;;;;6.84;100.00;98608.34;4970383;28;20331;-62
2020/12/12 04:52:15;;;;;;;49.13;17.38;;;;;;;6.78;100.00;98606.50;4967893;28;20537;-62
2020/12/12 04:54:43;;;;;;;49.42;18.15;;;;;;;6.87;100.00;98615.94;4969181;28;20047;-62
2020/12/12 04:57:11;;;;;;;42.55;18.85;;;;;;;6.83;100.00;98613.84;4966229;28;20135;-62
2020/12/12 04:59:39;;;;;;;58.67;19.25;;;;;;;6.82;100.00;98612.22;4967569;28;20134;-61
2020/12/12 05:02:06;;;;;;;55.30;19.67;;;;;;;6.79;100.00;98616.09;4967382;28;20039;-61
2020/12/12 05:04:33;;;;;;;52.13;18.40;;;;;;;6.81;100.00;98615.91;4967838;28;20061;-61
2020/12/12 05:07:01;;;;;;;41.13;16.95;;;;;;;6.86;100.00;98624.91;4967328;28;20446;-61
2020/12/12 05:09:28;;;;;;;58.50;21.77;;;;;;;6.77;100.00;98627.91;4967848;28;20051;-62
2020/12/12 05:11:55;;;;;;;52.38;17.88;;;;;;;6.78;100.00;98629.56;4968680;28;20046;-62
2020/12/12 05:14:23;;;;;;;53.45;18.65;;;;;;;6.69;100.00;98631.50;4967853;28;20057;-61
2020/12/12 05:16:54;;;;;;;48.63;20.25;;;;;;;6.71;100.00;98637.44;4967782;28;20058;-62
2020/12/12 05:19:22;;;;;;;47.78;19.20;;;;;;;6.62;100.00;98636.78;4968066;28;20055;-62
2020/12/12 05:21:50;;;;;;;52.08;19.98;;;;;;;6.72;100.00;98645.22;4967537;28;20038;-61
2020/12/12 05:24:17;;;;;;;50.88;18.42;;;;;;;6.73;100.00;98643.38;4967625;28;20046;-62
2020/12/12 05:26:45;;;;;;;58.80;21.02;;;;;;;6.75;100.00;98648.47;4965623;28;20050;-61
2020/12/12 05:29:12;;;;;;;45.65;18.92;;;;;;;6.84;100.00;98642.84;4969231;28;20141;-61
2020/12/12 05:31:41;;;;;;;54.47;18.67;;;;;;;6.75;100.00;98648.47;4965967;28;20057;-62
2020/12/12 05:34:11;;;;;;;45.55;17.63;;;;;;;6.84;100.00;98650.00;4968505;28;20055;-62
2020/12/12 05:36:39;;;;;;;57.72;20.92;;;;;;;6.71;100.00;98648.06;4967602;28;20051;-61
2020/12/12 05:39:06;;;;;;;53.58;20.58;;;;;;;6.70;100.00;98651.72;4966296;28;20042;-62
2020/12/12 05:41:34;;;;;;;51.60;20.58;;;;;;;6.64;100.00;98652.50;4966611;28;20316;-61
2020/12/12 05:44:01;;;;;;;49.60;19.77;;;;;;;6.68;100.00;98659.06;4967646;28;20046;-62
2020/12/12 05:46:29;;;;;;;63.55;22.13;;;;;;;6.65;100.00;98662.06;4966716;28;20042;-61
2020/12/12 05:48:57;;;;;;;52.35;19.10;;;;;;;6.68;100.00;98662.53;4967183;28;20102;-62
2020/12/12 05:51:26;;;;;;;47.10;19.83;;;;;;;6.69;100.00;98672.13;4970061;28;20330;-62
2020/12/12 05:53:54;;;;;;;61.28;22.30;;;;;;;6.64;100.00;98669.22;4966716;28;20051;-62
2020/12/12 05:56:23;;;;;;;53.20;19.92;;;;;;;6.61;100.00;98674.91;4968603;28;20082;-62
2020/12/12 05:58:51;;;;;;;60.50;20.15;;;;;;;6.63;100.00;98678.16;4966414;28;20070;-62
2020/12/12 06:01:19;;;;;;;48.83;19.40;;;;;;;6.66;100.00;98685.78;4967647;28;20050;-61
2020/12/12 06:04:01;;;;;;;49.75;20.05;;;;;;;6.61;100.00;98682.84;4969083;28;20070;-61
2020/12/12 06:06:28;;;;;;;59.58;19.00;;;;;;;6.61;100.00;98690.00;4968035;28;20348;-61
2020/12/12 06:09:06;;;;;;;51.95;20.10;;;;;;;6.58;100.00;98696.50;4963374;28;20354;-61
2020/12/12 06:11:34;;;;;;;62.83;22.33;;;;;;;6.53;100.00;98694.44;4967056;28;20070;-61
2020/12/12 06:14:03;;;;;;;49.75;18.67;;;;;;;6.57;100.00;98694.03;4966915;28;20058;-61
2020/12/12 06:16:32;;;;;;;54.03;19.48;;;;;;;6.67;100.00;98702.50;4964404;28;20050;-61
2020/12/12 06:19:13;;;;;;;56.00;18.75;;;;;;;6.74;100.00;98702.56;4965477;28;20134;-61
2020/12/12 06:21:41;;;;;;;52.95;18.48;;;;;;;6.73;100.00;98701.72;4967963;28;20077;-61
2020/12/12 06:24:10;;;;;;;49.72;19.77;;;;;;;6.78;100.00;98711.78;4967601;28;20046;-62
2020/12/12 06:26:52;;;;;;;47.50;18.05;;;;;;;6.70;100.00;98704.78;4962530;28;20047;-61
2020/12/12 06:29:20;;;;;;;59.28;19.17;;;;;;;6.63;100.00;98717.97;4968566;28;20050;-62
2020/12/12 06:31:52;;;;;;;43.38;18.30;;;;;;;6.67;100.00;98716.56;4965505;28;20065;-62
2020/12/12 06:34:44;;;;;;;47.35;17.45;;;;;;;6.75;100.00;98723.59;4964209;28;21724;-61
2020/12/12 06:37:28;;;;;;;46.47;17.90;;;;;;;6.71;100.00;98727.63;4963977;28;20089;-61
2020/12/12 06:39:55;;;;;;;47.80;18.27;;;;;;;6.71;100.00;98717.03;4966586;28;20039;-62
2020/12/12 06:42:34;;;;;;;58.28;19.88;;;;;;;6.61;100.00;98732.44;4967610;28;20050;-61
2020/12/12 06:45:03;;;;;;;56.75;19.98;;;;;;;6.60;100.00;98741.41;4964729;28;20051;-62
2020/12/12 06:47:40;;;;;;;48.10;19.88;;;;;;;6.64;100.00;98742.66;4965244;28;20097;-61
2020/12/12 06:50:11;;;;;;;54.45;19.20;;;;;;;6.63;100.00;98746.31;4966067;28;20461;-61
2020/12/12 06:52:37;;;;;;;48.13;18.73;;;;;;;6.67;100.00;98748.41;4963502;28;20038;-61
2020/12/12 06:55:09;;;;;;;56.30;19.98;;;;;;;6.71;100.00;98752.31;4966486;28;20198;-62
2020/12/12 06:57:39;;;;;;;45.17;19.02;;;;;;;6.68;100.00;98760.66;4966176;28;20046;-61
2020/12/12 07:00:08;;;;;;;51.45;18.42;;;;;;;6.76;100.00;98762.34;4967916;28;20502;-61
2020/12/12 07:02:35;;;;;;;53.25;19.48;;;;;;;6.78;100.00;98770.16;4964312;28;20129;-61
2020/12/12 07:05:19;;;;;;;49.83;19.58;;;;;;;6.69;100.00;98766.78;4968186;28;20042;-61
2020/12/12 07:07:47;;;;;;;48.17;20.30;;;;;;;6.70;100.00;98769.25;4966916;28;20046;-61
2020/12/12 07:10:14;;;;;;;49.40;20.20;;;;;;;6.63;100.00;98773.66;4971186;28;20331;-61
2020/12/12 07:12:41;;;;;;;47.55;18.92;;;;;;;6.74;100.00;98785.63;4971662;28;20043;-62
2020/12/12 07:15:08;;;;;;;50.10;18.65;;;;;;;6.77;100.00;98795.84;4973183;28;20054;-62
2020/12/12 07:17:35;;;;;;;64.93;20.83;;;;;;;6.70;100.00;98801.06;4966436;28;20077;-62
2020/12/12 07:20:04;;;;;;;48.78;19.38;;;;;;;6.71;100.00;98794.75;4971556;28;20521;-62
2020/12/12 07:22:34;;;;;;;55.72;20.42;;;;;;;6.71;100.00;98807.22;4971756;28;20039;-62
2020/12/12 07:25:03;;;;;;;57.53;21.73;;;;;;;6.71;100.00;98796.59;4969386;28;20050;-62
2020/12/12 07:27:30;;;;;;;60.63;20.95;;;;;;;6.65;100.00;98813.25;4970390;28;20531;-62
2020/12/12 07:29:58;;;;;;;51.75;20.98;;;;;;;6.68;100.00;98813.72;4970250;28;20050;-61
2020/12/12 07:32:27;;;;;;;63.97;22.30;;;;;;;6.60;100.00;98805.84;4971072;28;20050;-62
2020/12/12 07:34:58;;;;;;;56.35;21.73;;;;;;;6.66;100.00;98820.22;4965633;28;20438;-62
2020/12/12 07:37:25;;;;;;;54.75;21.25;;;;;;;6.62;100.00;98825.09;4967002;28;20053;-62
2020/12/12 07:39:53;;;;;;;49.63;20.33;;;;;;;6.71;100.00;98833.75;4970332;28;20053;-62
2020/12/12 07:42:22;;;;;;;59.47;21.77;;;;;;;6.74;100.00;98833.38;4969549;28;20117;-62
2020/12/12 07:44:53;;;;;;;52.70;22.35;;;;;;;6.71;100.00;98847.00;4968699;28;20047;-62
2020/12/12 07:47:20;;;;;;;51.72;21.75;;;;;;;6.72;100.00;98846.81;4964692;28;20046;-61
2020/12/12 07:49:48;;;;;;;59.42;21.15;;;;;;;6.69;100.00;98852.50;4968791;28;20118;-62
2020/12/12 07:52:15;;;;;;;63.67;22.88;;;;;;;6.68;100.00;98855.34;4968820;28;20042;-62
2020/12/12 07:54:45;;;;;;;54.40;20.80;;;;;;;6.71;100.00;98849.66;4969233;28;20050;-62
2020/12/12 07:57:14;;;;;;;58.22;22.50;;;;;;;6.74;100.00;98869.69;4971414;28;20328;-63
2020/12/12 07:59:42;;;;;;;67.07;22.40;;;;;;;6.70;100.00;98863.94;4969789;28;20050;-62
2020/12/12 08:02:12;;;;;;;75.88;25.02;;;;;;;6.67;100.00;98867.75;4969921;28;20046;-63
2020/12/12 08:04:39;;;;;;;53.70;21.25;;;;;;;6.75;100.00;98868.66;4968584;28;20046;-62
2020/12/12 08:07:10;;;;;;;55.30;21.45;;;;;;;6.78;100.00;98873.63;4968492;28;20054;-62
2020/12/12 08:09:37;;;;;;;67.53;22.23;;;;;;;6.79;100.00;98884.03;4967926;28;20054;-59
2020/12/12 08:12:04;;;;;;;62.25;22.52;;;;;;;6.77;100.00;98888.69;4971429;28;20034;-62
2020/12/12 08:14:41;;;;;;;59.30;21.98;;;;;;;6.86;100.00;98894.72;4970222;28;20054;-65
2020/12/12 08:17:10;;;;;;;55.88;22.20;;;;;;;6.82;100.00;98899.59;4964468;28;20069;-62
2020/12/12 08:19:46;;;;;;;52.35;20.92;;;;;;;6.83;100.00;98906.56;4969651;28;20093;-61
2020/12/12 08:22:17;;;;;;;59.65;22.15;;;;;;;6.92;100.00;98907.25;4970191;28;20501;-62
2020/12/12 08:24:44;;;;;;;47.97;20.35;;;;;;;6.99;100.00;98913.47;4968212;28;20335;-62
2020/12/12 08:27:12;;;;;;;56.55;21.58;;;;;;;6.97;100.00;98917.31;4968447;28;20038;-62
2020/12/12 08:29:45;;;;;;;52.45;20.58;;;;;;;7.00;100.00;98922.25;4969278;28;20042;-62
2020/12/12 08:32:35;;;;;;;67.72;23.00;;;;;;;6.98;100.00;98922.44;4968895;28;20066;-62
2020/12/12 08:35:17;;;;;;;57.47;21.30;;;;;;;6.89;100.00;98927.03;4969356;28;20062;-62
2020/12/12 08:37:56;;;;;;;55.90;19.50;;;;;;;7.00;100.00;98933.69;4967284;28;20046;-61
2020/12/12 08:40:26;;;;;;;57.03;21.48;;;;;;;7.01;100.00;98940.63;4966751;28;20061;-62
2020/12/12 08:42:55;;;;;;;53.30;21.08;;;;;;;6.97;100.00;98944.66;4973224;28;20046;-61
2020/12/12 08:45:23;;;;;;;66.72;24.17;;;;;;;6.95;100.00;98959.16;4969439;28;20054;-62
2020/12/12 08:47:59;;;;;;;54.22;21.75;;;;;;;6.99;100.00;98952.44;4962143;28;20030;-61
2020/12/12 08:50:31;;;;;;;48.20;18.15;;;;;;;7.11;100.00;98958.91;4966868;28;20458;-62
2020/12/12 08:53:19;;;;;;;55.17;20.52;;;;;;;7.22;100.00;98957.63;4968615;28;20394;-62
2020/12/12 08:56:00;;;;;;;51.42;21.88;;;;;;;7.21;100.00;98966.59;4969078;28;20074;-62
2020/12/12 08:58:48;;;;;;;51.20;20.08;;;;;;;7.17;100.00;98970.63;4966398;28;20050;-62
2020/12/12 09:01:31;;;;;;;57.60;20.58;;;;;;;7.17;100.00;98965.31;4970139;28;20055;-62
2020/12/12 09:04:04;;;;;;;54.90;20.52;;;;;;;7.15;100.00;98973.47;4963942;28;20325;-61
2020/12/12 09:06:46;;;;;;;58.05;20.63;;;;;;;7.21;100.00;98986.00;4967184;28;20047;-62
2020/12/12 09:09:17;;;;;;;54.25;20.27;;;;;;;7.18;100.00;98986.38;4965115;28;20138;-62
2020/12/12 09:11:46;;;;;;;49.13;21.15;;;;;;;7.23;100.00;98997.28;4967695;28;20062;-62
2020/12/12 09:14:15;;;;;;;48.95;20.67;;;;;;;7.29;100.00;98992.22;4969490;28;20325;-62
2020/12/12 09:16:51;;;;;;;56.22;19.85;;;;;;;7.33;100.00;98991.66;4966628;28;20105;-62
2020/12/12 09:19:19;;;;;;;47.80;19.92;;;;;;;7.37;100.00;99000.06;4967679;28;20443;-62
2020/12/12 09:21:46;;;;;;;49.53;20.05;;;;;;;7.38;100.00;99001.72;4967084;28;20046;-62
2020/12/12 09:24:13;;;;;;;42.80;19.63;;;;;;;7.33;100.00;99002.28;4965663;28;20096;-61
2020/12/12 09:26:41;;;;;;;49.60;18.30;;;;;;;7.30;100.00;99007.13;4967854;28;20054;-62
2020/12/12 09:29:08;;;;;;;44.22;18.45;;;;;;;7.40;100.00;99018.31;4962534;28;20055;-62
2020/12/12 09:31:35;;;;;;;49.83;20.40;;;;;;;7.40;100.00;99013.81;4968365;28;20047;-62
2020/12/12 09:34:03;;;;;;;45.80;17.38;;;;;;;7.46;100.00;99020.22;4964650;28;20065;-61
2020/12/12 09:36:31;;;;;;;49.78;19.42;;;;;;;7.47;100.00;99021.03;4968762;28;20047;-61
2020/12/12 09:39:00;;;;;;;47.03;17.48;;;;;;;7.57;100.00;99035.66;4958140;28;20300;-61
2020/12/12 09:41:27;;;;;;;47.60;17.85;;;;;;;7.52;100.00;99032.72;4966869;28;20427;-61
2020/12/12 09:43:54;;;;;;;52.72;18.73;;;;;;;7.58;100.00;99034.66;4968281;28;20050;-61
2020/12/12 09:46:22;;;;;;;46.55;18.38;;;;;;;7.57;100.00;99034.84;4968268;28;20066;-62
2020/12/12 09:48:49;;;;;;;43.83;17.05;;;;;;;7.71;100.00;99035.78;4963890;28;20767;-63
2020/12/12 09:51:17;;;;;;;53.95;19.77;;;;;;;7.50;100.00;99034.75;4967136;28;20121;-62
2020/12/12 09:53:45;;;;;;;54.65;21.13;;;;;;;7.54;100.00;99040.50;4965188;28;20046;-62
2020/12/12 09:56:13;;;;;;;50.65;21.55;;;;;;;7.63;100.00;99038.59;4968621;28;20058;-62
2020/12/12 09:58:40;;;;;;;46.03;18.83;;;;;;;7.77;100.00;99043.03;4965118;28;20053;-61
2020/12/12 10:01:11;;;;;;;42.28;18.88;;;;;;;7.93;100.00;99041.97;4962385;28;20047;-60
2020/12/12 10:03:38;;;;;;;49.83;18.80;;;;;;;7.92;100.00;99057.09;4962884;28;20073;-59
2020/12/12 10:06:06;;;;;;;41.85;17.73;;;;;;;8.06;100.00;99052.72;4968322;28;20334;-60
2020/12/12 10:08:34;;;;;;;47.78;17.17;;;;;;;7.98;100.00;99058.19;4963056;28;20053;-60
2020/12/12 10:11:01;;;;;;;50.58;19.23;;;;;;;7.98;100.00;99060.00;4969796;28;20039;-61
2020/12/12 10:13:28;;;;;;;44.90;18.60;;;;;;;7.93;100.00;99068.53;4965565;28;20051;-61
2020/12/12 10:15:55;;;;;;;61.63;21.02;;;;;;;7.69;100.00;99065.22;4966026;28;20087;-61
2020/12/12 10:18:22;;;;;;;61.97;19.65;;;;;;;7.78;100.00;99067.75;4965200;28;20046;-60
2020/12/12 10:20:50;;;;;;;55.53;20.13;;;;;;;7.67;100.00;99071.72;4965985;28;20514;-61
2020/12/12 10:23:17;;;;;;;53.30;20.05;;;;;;;7.79;100.00;99075.53;4964337;28;20042;-60
2020/12/12 10:25:44;;;;;;;50.53;18.98;;;;;;;7.77;100.00;99077.56;4965516;28;20043;-60
2020/12/12 10:28:13;;;;;;;56.40;20.63;;;;;;;7.63;100.00;99076.59;4965113;28;20050;-61
2020/12/12 10:30:39;;;;;;;55.53;21.23;;;;;;;7.66;100.00;99075.41;4966055;28;20043;-60
2020/12/12 10:33:09;;;;;;;60.20;21.02;;;;;;;7.72;100.00;99086.09;4966697;28;20038;-61
2020/12/12 10:35:36;;;;;;;64.28;22.50;;;;;;;7.62;100.00;99098.03;4964368;28;20059;-60
2020/12/12 10:38:03;;;;;;;60.63;22.75;;;;;;;7.58;100.00;99101.06;4963026;28;20085;-61
2020/12/12 10:40:33;;;;;;;62.13;22.77;;;;;;;7.83;100.00;99098.06;4969619;28;20319;-60
2020/12/12 10:43:04;;;;;;;66.05;21.95;;;;;;;7.77;100.00;99096.19;4970189;28;20058;-61
2020/12/12 10:45:31;;;;;;;51.25;20.73;;;;;;;7.90;100.00;99098.97;4971491;28;20057;-60
2020/12/12 10:47:58;;;;;;;51.92;19.52;;;;;;;7.85;100.00;99108.53;4967059;28;20059;-60
2020/12/12 10:50:25;;;;;;;53.05;20.38;;;;;;;7.95;100.00;99108.22;4966874;28;20515;-60
2020/12/12 10:52:52;;;;;;;52.80;21.95;;;;;;;7.94;100.00;99104.75;4968100;28;20043;-60
2020/12/12 10:55:20;;;;;;;53.58;20.27;;;;;;;8.04;100.00;99107.09;4969503;28;20061;-59
2020/12/12 10:57:47;;;;;;;55.20;21.88;;;;;;;8.03;100.00;99106.25;4970072;28;20070;-60
2020/12/12 11:00:23;;;;;;;56.47;20.77;;;;;;;8.13;100.00;99108.63;4970678;28;20047;-60
2020/12/12 11:02:49;;;;;;;;;;;;;;;8.18;100.00;99114.22;4968831;28;20600;-60
2020/12/12 11:05:17;;;;;;;55.08;19.92;;;;;;;8.03;100.00;99111.59;4970034;28;20322;-60
2020/12/12 11:07:51;;;;;;;59.28;22.17;;;;;;;8.04;100.00;99110.56;4968246;28;20051;-60
2020/12/12 11:10:18;;;;;;;59.92;22.73;;;;;;;7.93;100.00;99114.53;4970719;28;20054;-60
2020/12/12 11:12:45;;;;;;;56.92;22.50;;;;;;;8.01;100.00;99110.13;4970901;28;20419;-60
2020/12/12 11:15:13;;;;;;;66.63;23.38;;;;;;;8.05;100.00;99120.22;4971767;28;20053;-60
2020/12/12 11:17:44;;;;;;;62.63;21.30;;;;;;;8.28;100.00;99120.03;4966338;28;20106;-59
2020/12/12 11:20:11;;;;;;;56.17;22.52;;;;;;;8.39;100.00;99118.72;4966841;28;20549;-60
2020/12/12 11:22:38;;;;;;;57.45;21.85;;;;;;;8.55;100.00;99130.94;4968412;28;20062;-60
2020/12/12 11:25:06;;;;;;;57.53;23.70;;;;;;;8.36;100.00;99128.91;4965909;28;20054;-60